EBLG/LGG METAR and TAF weather

Enter ICAO airport designator
Station Type Date Time Source
EBLG METAR 2018/04/21 11:20 UTC NOAA

EBLG 211120Z 03005KT 350V090 6000 NSC 21/13 Q1021 NOSIG


Station Type Date Time Source
EBLG Decoded METAR 2018/04/21 11:20 UTC NOAA

Bierset, Belgium (EBLG) 50-39N 005-27E 178M
Apr 21, 2018 - 07:20 AM EDT / 2018.04.21 1120 UTC
Wind: from the NNE (030 degrees) at 6 MPH (5 KT) (direction variable):0
Visibility: 3 mile(s):0
Temperature: 69 F (21 C)
Dew Point: 55 F (13 C)
Relative Humidity: 60%
Pressure (altimeter): 30.15 in. Hg (1021 hPa)
ob: EBLG 211120Z 03005KT 350V090 6000 NSC 21/13 Q1021 NOSIG
cycle: 11

Station Type Date Time Source
EBLG TAF 2018/04/21 12:27 UTC NOAA

TAF EBLG 211101Z 2112/2218 04006KT CAVOK PROB30 2205/2208 VRB18G30KT 4000 -TSRA
BECMG 2210/2212 21010KT PROB40
TEMPO 2216/2218 23015G25KT 4000 SHRA TSRA


Example: see airport list